sensor_id;sensor_type;location;lat;lon;timestamp;temperature;humidity
68813;DHT22;55808;48.112;11.552;2023-04-24T00:00:54;9.20;99.90
68813;DHT22;55808;48.112;11.552;2023-04-24T00:03:24;9.10;99.90
68813;DHT22;55808;48.112;11.552;2023-04-24T00:05:50;9.10;99.90
68813;DHT22;55808;48.112;11.552;2023-04-24T00:08:16;9.30;99.90
68813;DHT22;55808;48.112;11.552;2023-04-24T00:10:42;9.40;99.90
68813;DHT22;55808;48.112;11.552;2023-04-24T00:13:07;9.50;99.90
68813;DHT22;55808;48.112;11.552;2023-04-24T00:15:33;9.30;99.90
68813;DHT22;55808;48.112;11.552;2023-04-24T00:17:58;9.20;99.90
68813;DHT22;55808;48.112;11.552;2023-04-24T00:20:24;9.20;99.90
68813;DHT22;55808;48.112;11.552;2023-04-24T00:22:49;9.20;99.90
68813;DHT22;55808;48.112;11.552;2023-04-24T00:25:15;9.10;99.90
68813;DHT22;55808;48.112;11.552;2023-04-24T00:27:40;9.30;99.90
68813;DHT22;55808;48.112;11.552;2023-04-24T00:30:06;9.20;99.90
68813;DHT22;55808;48.112;11.552;2023-04-24T00:32:32;9.10;99.90
68813;DHT22;55808;48.112;11.552;2023-04-24T00:34:57;9.20;99.90
68813;DHT22;55808;48.112;11.552;2023-04-24T00:37:23;9.00;99.90
68813;DHT22;55808;48.112;11.552;2023-04-24T00:39:48;8.90;99.90
68813;DHT22;55808;48.112;11.552;2023-04-24T00:42:14;8.90;99.90
68813;DHT22;55808;48.112;11.552;2023-04-24T00:44:40;8.90;99.90
68813;DHT22;55808;48.112;11.552;2023-04-24T00:47:05;8.80;99.90
68813;DHT22;55808;48.112;11.552;2023-04-24T00:49:31;8.80;99.90
68813;DHT22;55808;48.112;11.552;2023-04-24T00:51:56;8.90;99.90
68813;DHT22;55808;48.112;11.552;2023-04-24T00:54:24;8.90;99.90
68813;DHT22;55808;48.112;11.552;2023-04-24T00:56:50;8.80;99.90
68813;DHT22;55808;48.112;11.552;2023-04-24T00:59:16;8.70;99.90
68813;DHT22;55808;48.112;11.552;2023-04-24T01:01:42;8.70;99.90
68813;DHT22;55808;48.112;11.552;2023-04-24T01:04:09;8.70;99.90
68813;DHT22;55808;48.112;11.552;2023-04-24T01:06:35;8.80;99.90
68813;DHT22;55808;48.112;11.552;2023-04-24T01:09:02;8.70;99.90
68813;DHT22;55808;48.112;11.552;2023-04-24T01:11:27;8.50;99.90
68813;DHT22;55808;48.112;11.552;2023-04-24T01:13:54;8.60;99.90
68813;DHT22;55808;48.112;11.552;2023-04-24T01:16:19;8.60;99.90
68813;DHT22;55808;48.112;11.552;2023-04-24T01:18:46;10.40;99.90
68813;DHT22;55808;48.112;11.552;2023-04-24T01:21:13;9.10;99.90
68813;DHT22;55808;48.112;11.552;2023-04-24T01:23:39;8.50;99.90
68813;DHT22;55808;48.112;11.552;2023-04-24T01:26:05;8.60;99.90
68813;DHT22;55808;48.112;11.552;2023-04-24T01:28:31;8.50;99.90
68813;DHT22;55808;48.112;11.552;2023-04-24T01:30:56;8.50;99.90
68813;DHT22;55808;48.112;11.552;2023-04-24T01:33:22;8.50;99.90
68813;DHT22;55808;48.112;11.552;2023-04-24T01:35:48;8.50;99.90
68813;DHT22;55808;48.112;11.552;2023-04-24T01:38:14;8.50;99.90
68813;DHT22;55808;48.112;11.552;2023-04-24T01:40:39;8.50;99.90
68813;DHT22;55808;48.112;11.552;2023-04-24T01:43:05;8.50;99.90
68813;DHT22;55808;48.112;11.552;2023-04-24T01:45:31;8.50;99.90
68813;DHT22;55808;48.112;11.552;2023-04-24T01:47:56;8.40;99.90
68813;DHT22;55808;48.112;11.552;2023-04-24T01:50:22;8.50;99.90
68813;DHT22;55808;48.112;11.552;2023-04-24T01:52:47;8.40;99.90
68813;DHT22;55808;48.112;11.552;2023-04-24T01:55:13;8.40;99.90
68813;DHT22;55808;48.112;11.552;2023-04-24T01:57:38;8.50;99.90
68813;DHT22;55808;48.112;11.552;2023-04-24T02:00:05;8.40;99.90
68813;DHT22;55808;48.112;11.552;2023-04-24T02:02:32;8.30;99.90
68813;DHT22;55808;48.112;11.552;2023-04-24T02:04:57;8.40;99.90
68813;DHT22;55808;48.112;11.552;2023-04-24T02:07:23;8.40;99.90
68813;DHT22;55808;48.112;11.552;2023-04-24T02:09:48;8.40;99.90
68813;DHT22;55808;48.112;11.552;2023-04-24T02:12:17;8.90;99.90
68813;DHT22;55808;48.112;11.552;2023-04-24T02:14:43;8.20;99.90
68813;DHT22;55808;48.112;11.552;2023-04-24T02:17:08;8.20;99.90
68813;DHT22;55808;48.112;11.552;2023-04-24T02:19:34;8.30;99.90
68813;DHT22;55808;48.112;11.552;2023-04-24T02:22:00;8.20;99.90
68813;DHT22;55808;48.112;11.552;2023-04-24T02:24:25;8.30;99.90
68813;DHT22;55808;48.112;11.552;2023-04-24T02:26:51;8.40;99.90
68813;DHT22;55808;48.112;11.552;2023-04-24T02:29:16;8.20;99.90
68813;DHT22;55808;48.112;11.552;2023-04-24T02:31:42;8.40;99.90
68813;DHT22;55808;48.112;11.552;2023-04-24T02:34:07;8.20;99.90
68813;DHT22;55808;48.112;11.552;2023-04-24T02:36:33;8.20;99.90
68813;DHT22;55808;48.112;11.552;2023-04-24T02:38:58;8.10;99.90
68813;DHT22;55808;48.112;11.552;2023-04-24T02:41:24;8.20;99.90
68813;DHT22;55808;48.112;11.552;2023-04-24T02:43:49;8.20;99.90
68813;DHT22;55808;48.112;11.552;2023-04-24T02:46:15;8.80;99.90
68813;DHT22;55808;48.112;11.552;2023-04-24T02:48:40;8.10;99.90
68813;DHT22;55808;48.112;11.552;2023-04-24T02:51:06;8.20;99.90
68813;DHT22;55808;48.112;11.552;2023-04-24T02:53:32;8.20;99.90
68813;DHT22;55808;48.112;11.552;2023-04-24T02:55:57;8.20;99.90
68813;DHT22;55808;48.112;11.552;2023-04-24T02:58:23;8.10;99.90
68813;DHT22;55808;48.112;11.552;2023-04-24T03:00:48;8.10;99.90
68813;DHT22;55808;48.112;11.552;2023-04-24T03:03:14;8.10;99.90
68813;DHT22;55808;48.112;11.552;2023-04-24T03:05:40;8.30;99.90
68813;DHT22;55808;48.112;11.552;2023-04-24T03:08:06;8.10;99.90
68813;DHT22;55808;48.112;11.552;2023-04-24T03:10:31;8.10;99.90
68813;DHT22;55808;48.112;11.552;2023-04-24T03:13:00;8.10;99.90
68813;DHT22;55808;48.112;11.552;2023-04-24T03:15:26;8.10;99.90
68813;DHT22;55808;48.112;11.552;2023-04-24T03:17:51;8.00;99.90
68813;DHT22;55808;48.112;11.552;2023-04-24T03:20:17;8.10;99.90
68813;DHT22;55808;48.112;11.552;2023-04-24T03:22:43;8.10;99.90
68813;DHT22;55808;48.112;11.552;2023-04-24T03:25:08;8.10;99.90
68813;DHT22;55808;48.112;11.552;2023-04-24T03:27:34;8.00;99.90
68813;DHT22;55808;48.112;11.552;2023-04-24T03:30:00;8.10;99.90
68813;DHT22;55808;48.112;11.552;2023-04-24T03:32:26;8.00;99.90
68813;DHT22;55808;48.112;11.552;2023-04-24T03:34:51;8.10;99.90
68813;DHT22;55808;48.112;11.552;2023-04-24T03:37:17;8.00;99.90
68813;DHT22;55808;48.112;11.552;2023-04-24T03:39:42;8.00;99.90
68813;DHT22;55808;48.112;11.552;2023-04-24T03:42:08;8.10;99.90
68813;DHT22;55808;48.112;11.552;2023-04-24T03:44:34;8.00;99.90
68813;DHT22;55808;48.112;11.552;2023-04-24T03:46:59;8.20;99.90
68813;DHT22;55808;48.112;11.552;2023-04-24T03:49:25;8.00;99.90
68813;DHT22;55808;48.112;11.552;2023-04-24T03:51:51;8.00;99.90
68813;DHT22;55808;48.112;11.552;2023-04-24T03:54:17;7.90;99.90
68813;DHT22;55808;48.112;11.552;2023-04-24T03:56:43;8.00;99.90
68813;DHT22;55808;48.112;11.552;2023-04-24T03:59:08;8.00;99.90
68813;DHT22;55808;48.112;11.552;2023-04-24T04:01:34;7.90;99.90
68813;DHT22;55808;48.112;11.552;2023-04-24T04:04:02;8.00;99.90
68813;DHT22;55808;48.112;11.552;2023-04-24T04:06:28;8.00;99.90
68813;DHT22;55808;48.112;11.552;2023-04-24T04:08:53;8.00;99.90
68813;DHT22;55808;48.112;11.552;2023-04-24T04:11:19;8.50;99.90
68813;DHT22;55808;48.112;11.552;2023-04-24T04:13:45;8.00;99.90
68813;DHT22;55808;48.112;11.552;2023-04-24T04:16:13;8.10;99.90
68813;DHT22;55808;48.112;11.552;2023-04-24T04:18:38;8.40;99.90
68813;DHT22;55808;48.112;11.552;2023-04-24T04:21:04;8.10;99.90
68813;DHT22;55808;48.112;11.552;2023-04-24T04:23:30;8.10;99.90
68813;DHT22;55808;48.112;11.552;2023-04-24T04:25:55;8.10;99.90
68813;DHT22;55808;48.112;11.552;2023-04-24T04:28:21;8.00;99.90
68813;DHT22;55808;48.112;11.552;2023-04-24T04:30:46;8.00;99.90
68813;DHT22;55808;48.112;11.552;2023-04-24T04:33:12;8.00;99.90
68813;DHT22;55808;48.112;11.552;2023-04-24T04:35:38;8.00;99.90
68813;DHT22;55808;48.112;11.552;2023-04-24T04:38:03;8.10;99.90
68813;DHT22;55808;48.112;11.552;2023-04-24T04:40:30;8.10;99.90
68813;DHT22;55808;48.112;11.552;2023-04-24T04:42:55;8.10;99.90
68813;DHT22;55808;48.112;11.552;2023-04-24T04:45:21;8.10;99.90
68813;DHT22;55808;48.112;11.552;2023-04-24T04:47:46;8.00;99.90
68813;DHT22;55808;48.112;11.552;2023-04-24T04:50:12;8.00;99.90
68813;DHT22;55808;48.112;11.552;2023-04-24T04:52:38;8.00;99.90
68813;DHT22;55808;48.112;11.552;2023-04-24T04:55:04;8.60;99.90
68813;DHT22;55808;48.112;11.552;2023-04-24T04:57:30;8.00;99.90
68813;DHT22;55808;48.112;11.552;2023-04-24T04:59:56;8.00;99.90
68813;DHT22;55808;48.112;11.552;2023-04-24T05:02:22;8.10;99.90
68813;DHT22;55808;48.112;11.552;2023-04-24T05:04:47;8.00;99.90
68813;DHT22;55808;48.112;11.552;2023-04-24T05:07:13;8.60;99.90
68813;DHT22;55808;48.112;11.552;2023-04-24T05:09:38;8.20;99.90
68813;DHT22;55808;48.112;11.552;2023-04-24T05:12:04;8.80;99.90
68813;DHT22;55808;48.112;11.552;2023-04-24T05:14:29;8.00;99.90
68813;DHT22;55808;48.112;11.552;2023-04-24T05:16:55;8.10;99.90
68813;DHT22;55808;48.112;11.552;2023-04-24T05:19:20;8.10;99.90
68813;DHT22;55808;48.112;11.552;2023-04-24T05:21:46;8.10;99.90
68813;DHT22;55808;48.112;11.552;2023-04-24T05:24:11;8.10;99.90
68813;DHT22;55808;48.112;11.552;2023-04-24T05:26:37;8.10;99.90
68813;DHT22;55808;48.112;11.552;2023-04-24T05:29:03;8.00;99.90
68813;DHT22;55808;48.112;11.552;2023-04-24T05:31:28;8.10;99.90
68813;DHT22;55808;48.112;11.552;2023-04-24T05:33:54;8.00;99.90
68813;DHT22;55808;48.112;11.552;2023-04-24T05:36:19;8.00;99.90
68813;DHT22;55808;48.112;11.552;2023-04-24T05:38:45;8.00;99.90
68813;DHT22;55808;48.112;11.552;2023-04-24T05:41:11;8.10;99.90
68813;DHT22;55808;48.112;11.552;2023-04-24T05:43:36;8.20;99.90
68813;DHT22;55808;48.112;11.552;2023-04-24T05:46:02;8.10;99.90
68813;DHT22;55808;48.112;11.552;2023-04-24T05:48:27;8.10;99.90
68813;DHT22;55808;48.112;11.552;2023-04-24T05:50:53;8.10;99.90
68813;DHT22;55808;48.112;11.552;2023-04-24T05:53:18;8.10;99.90
68813;DHT22;55808;48.112;11.552;2023-04-24T05:55:44;8.10;99.90
68813;DHT22;55808;48.112;11.552;2023-04-24T05:58:10;8.10;99.90
68813;DHT22;55808;48.112;11.552;2023-04-24T06:00:35;8.20;99.90
68813;DHT22;55808;48.112;11.552;2023-04-24T06:06:02;8.30;99.90
68813;DHT22;55808;48.112;11.552;2023-04-24T06:08:27;8.50;99.90
68813;DHT22;55808;48.112;11.552;2023-04-24T06:10:53;8.40;99.90
68813;DHT22;55808;48.112;11.552;2023-04-24T06:13:18;8.50;99.90
68813;DHT22;55808;48.112;11.552;2023-04-24T06:15:44;8.60;99.90
68813;DHT22;55808;48.112;11.552;2023-04-24T06:18:09;8.60;99.90
68813;DHT22;55808;48.112;11.552;2023-04-24T06:20:38;8.50;99.90
68813;DHT22;55808;48.112;11.552;2023-04-24T06:23:04;8.60;99.90
68813;DHT22;55808;48.112;11.552;2023-04-24T06:25:29;8.60;99.90
68813;DHT22;55808;48.112;11.552;2023-04-24T06:27:55;9.30;99.90
68813;DHT22;55808;48.112;11.552;2023-04-24T06:30:21;8.60;99.90
68813;DHT22;55808;48.112;11.552;2023-04-24T06:32:47;8.60;99.90
68813;DHT22;55808;48.112;11.552;2023-04-24T06:35:12;8.60;99.90
68813;DHT22;55808;48.112;11.552;2023-04-24T06:37:41;8.60;99.90
68813;DHT22;55808;48.112;11.552;2023-04-24T06:40:07;8.70;99.90
68813;DHT22;55808;48.112;11.552;2023-04-24T06:42:32;8.70;99.90
68813;DHT22;55808;48.112;11.552;2023-04-24T06:44:58;8.70;99.90
68813;DHT22;55808;48.112;11.552;2023-04-24T06:47:23;8.70;99.90
68813;DHT22;55808;48.112;11.552;2023-04-24T06:49:52;8.90;99.90
68813;DHT22;55808;48.112;11.552;2023-04-24T06:52:18;9.00;99.90
68813;DHT22;55808;48.112;11.552;2023-04-24T06:54:44;9.10;99.90
68813;DHT22;55808;48.112;11.552;2023-04-24T06:57:10;9.00;99.90
68813;DHT22;55808;48.112;11.552;2023-04-24T06:59:36;9.20;99.90
68813;DHT22;55808;48.112;11.552;2023-04-24T07:02:01;9.20;99.90
68813;DHT22;55808;48.112;11.552;2023-04-24T07:04:27;9.10;99.90
68813;DHT22;55808;48.112;11.552;2023-04-24T07:06:53;9.10;99.90
68813;DHT22;55808;48.112;11.552;2023-04-24T07:09:23;9.50;99.90
68813;DHT22;55808;48.112;11.552;2023-04-24T07:11:49;9.20;99.90
68813;DHT22;55808;48.112;11.552;2023-04-24T07:14:15;9.10;99.90
68813;DHT22;55808;48.112;11.552;2023-04-24T07:16:40;9.20;99.90
68813;DHT22;55808;48.112;11.552;2023-04-24T07:19:06;9.20;99.90
68813;DHT22;55808;48.112;11.552;2023-04-24T07:21:32;9.30;99.90
68813;DHT22;55808;48.112;11.552;2023-04-24T07:23:58;9.40;99.90
68813;DHT22;55808;48.112;11.552;2023-04-24T07:26:23;9.20;99.90
68813;DHT22;55808;48.112;11.552;2023-04-24T07:28:50;9.10;99.90
68813;DHT22;55808;48.112;11.552;2023-04-24T07:31:15;9.30;99.90
68813;DHT22;55808;48.112;11.552;2023-04-24T07:33:41;9.30;99.90
68813;DHT22;55808;48.112;11.552;2023-04-24T07:36:06;9.20;99.90
68813;DHT22;55808;48.112;11.552;2023-04-24T07:38:32;9.30;99.90
68813;DHT22;55808;48.112;11.552;2023-04-24T07:40:57;9.30;99.90
68813;DHT22;55808;48.112;11.552;2023-04-24T07:43:23;9.10;99.90
68813;DHT22;55808;48.112;11.552;2023-04-24T07:45:52;9.20;99.90
68813;DHT22;55808;48.112;11.552;2023-04-24T07:48:17;9.30;99.90
68813;DHT22;55808;48.112;11.552;2023-04-24T07:50:43;9.20;99.90
68813;DHT22;55808;48.112;11.552;2023-04-24T07:53:09;9.20;99.90
68813;DHT22;55808;48.112;11.552;2023-04-24T07:55:35;9.40;99.90
68813;DHT22;55808;48.112;11.552;2023-04-24T07:58:00;9.50;99.90
68813;DHT22;55808;48.112;11.552;2023-04-24T08:00:26;9.30;99.90
68813;DHT22;55808;48.112;11.552;2023-04-24T08:02:51;9.40;99.90
68813;DHT22;55808;48.112;11.552;2023-04-24T08:05:17;9.40;99.90
68813;DHT22;55808;48.112;11.552;2023-04-24T08:07:43;9.50;99.90
68813;DHT22;55808;48.112;11.552;2023-04-24T08:10:09;9.50;99.90
68813;DHT22;55808;48.112;11.552;2023-04-24T08:12:35;9.60;99.90
68813;DHT22;55808;48.112;11.552;2023-04-24T08:15:01;10.10;99.90
68813;DHT22;55808;48.112;11.552;2023-04-24T08:17:26;9.90;99.90
68813;DHT22;55808;48.112;11.552;2023-04-24T08:19:52;9.50;99.90
68813;DHT22;55808;48.112;11.552;2023-04-24T08:22:24;9.50;99.90
68813;DHT22;55808;48.112;11.552;2023-04-24T08:24:49;9.40;99.90
68813;DHT22;55808;48.112;11.552;2023-04-24T08:27:15;9.50;99.90
68813;DHT22;55808;48.112;11.552;2023-04-24T08:29:40;9.50;99.90
68813;DHT22;55808;48.112;11.552;2023-04-24T08:32:06;9.60;99.90
68813;DHT22;55808;48.112;11.552;2023-04-24T08:34:32;10.10;99.90
68813;DHT22;55808;48.112;11.552;2023-04-24T08:36:58;9.50;99.90
68813;DHT22;55808;48.112;11.552;2023-04-24T08:39:23;9.20;99.90
68813;DHT22;55808;48.112;11.552;2023-04-24T08:41:49;9.00;99.90
68813;DHT22;55808;48.112;11.552;2023-04-24T08:44:15;8.80;99.90
68813;DHT22;55808;48.112;11.552;2023-04-24T08:46:42;8.60;99.90
68813;DHT22;55808;48.112;11.552;2023-04-24T08:49:08;8.70;99.90
68813;DHT22;55808;48.112;11.552;2023-04-24T08:51:34;8.90;99.90
68813;DHT22;55808;48.112;11.552;2023-04-24T08:54:01;9.00;99.90
68813;DHT22;55808;48.112;11.552;2023-04-24T08:56:29;8.80;99.90
68813;DHT22;55808;48.112;11.552;2023-04-24T08:58:56;8.90;99.90
68813;DHT22;55808;48.112;11.552;2023-04-24T09:01:22;8.80;99.90
68813;DHT22;55808;48.112;11.552;2023-04-24T09:03:49;8.70;99.90
68813;DHT22;55808;48.112;11.552;2023-04-24T09:06:16;8.60;99.90
68813;DHT22;55808;48.112;11.552;2023-04-24T09:08:42;8.70;99.90
68813;DHT22;55808;48.112;11.552;2023-04-24T09:11:08;8.70;99.90
68813;DHT22;55808;48.112;11.552;2023-04-24T09:13:35;8.80;99.90
68813;DHT22;55808;48.112;11.552;2023-04-24T09:16:00;8.80;99.90
68813;DHT22;55808;48.112;11.552;2023-04-24T09:18:26;8.70;99.90
68813;DHT22;55808;48.112;11.552;2023-04-24T09:21:01;8.90;99.90
68813;DHT22;55808;48.112;11.552;2023-04-24T09:23:28;9.00;99.90
68813;DHT22;55808;48.112;11.552;2023-04-24T09:25:54;9.10;99.90
68813;DHT22;55808;48.112;11.552;2023-04-24T09:28:22;9.10;99.90
68813;DHT22;55808;48.112;11.552;2023-04-24T09:31:01;9.20;99.90
68813;DHT22;55808;48.112;11.552;2023-04-24T09:33:27;9.30;99.90
68813;DHT22;55808;48.112;11.552;2023-04-24T09:35:52;9.60;99.90
68813;DHT22;55808;48.112;11.552;2023-04-24T09:38:18;9.50;99.90
68813;DHT22;55808;48.112;11.552;2023-04-24T09:40:43;9.70;99.90
68813;DHT22;55808;48.112;11.552;2023-04-24T09:43:10;9.80;99.90
68813;DHT22;55808;48.112;11.552;2023-04-24T09:45:36;9.80;99.90
68813;DHT22;55808;48.112;11.552;2023-04-24T09:48:02;9.80;99.90
68813;DHT22;55808;48.112;11.552;2023-04-24T09:50:29;9.90;99.90
68813;DHT22;55808;48.112;11.552;2023-04-24T09:52:58;10.00;99.90
68813;DHT22;55808;48.112;11.552;2023-04-24T09:55:24;10.00;99.90
68813;DHT22;55808;48.112;11.552;2023-04-24T10:00:23;10.10;99.90
68813;DHT22;55808;48.112;11.552;2023-04-24T10:02:53;10.10;99.90
68813;DHT22;55808;48.112;11.552;2023-04-24T10:05:22;10.20;99.90
68813;DHT22;55808;48.112;11.552;2023-04-24T10:07:48;10.40;99.90
68813;DHT22;55808;48.112;11.552;2023-04-24T10:10:13;10.40;99.90
68813;DHT22;55808;48.112;11.552;2023-04-24T10:12:39;10.40;99.90
68813;DHT22;55808;48.112;11.552;2023-04-24T10:15:04;10.70;99.90
68813;DHT22;55808;48.112;11.552;2023-04-24T10:17:31;10.70;99.90
68813;DHT22;55808;48.112;11.552;2023-04-24T10:19:57;10.80;99.90
68813;DHT22;55808;48.112;11.552;2023-04-24T10:22:23;10.50;99.90
68813;DHT22;55808;48.112;11.552;2023-04-24T10:24:49;10.40;99.90
68813;DHT22;55808;48.112;11.552;2023-04-24T10:27:15;10.60;99.90
68813;DHT22;55808;48.112;11.552;2023-04-24T10:29:41;10.70;99.90
68813;DHT22;55808;48.112;11.552;2023-04-24T10:32:08;10.80;99.90
68813;DHT22;55808;48.112;11.552;2023-04-24T10:34:35;10.90;99.90
68813;DHT22;55808;48.112;11.552;2023-04-24T10:37:01;10.60;99.90
68813;DHT22;55808;48.112;11.552;2023-04-24T10:39:27;10.50;99.90
68813;DHT22;55808;48.112;11.552;2023-04-24T10:41:53;10.90;99.90
68813;DHT22;55808;48.112;11.552;2023-04-24T10:44:18;10.50;99.90
68813;DHT22;55808;48.112;11.552;2023-04-24T10:46:47;10.60;99.90
68813;DHT22;55808;48.112;11.552;2023-04-24T10:49:27;10.50;99.90
68813;DHT22;55808;48.112;11.552;2023-04-24T10:51:53;10.40;99.90
68813;DHT22;55808;48.112;11.552;2023-04-24T10:54:26;10.30;99.90
68813;DHT22;55808;48.112;11.552;2023-04-24T10:56:52;9.50;99.90
68813;DHT22;55808;48.112;11.552;2023-04-24T10:59:26;8.50;99.90
68813;DHT22;55808;48.112;11.552;2023-04-24T11:01:54;8.00;99.90
68813;DHT22;55808;48.112;11.552;2023-04-24T11:04:30;10.70;99.90
68813;DHT22;55808;48.112;11.552;2023-04-24T11:06:57;8.10;99.90
68813;DHT22;55808;48.112;11.552;2023-04-24T11:09:22;8.30;99.90
68813;DHT22;55808;48.112;11.552;2023-04-24T11:11:51;8.90;99.90
68813;DHT22;55808;48.112;11.552;2023-04-24T11:14:27;9.10;99.90
68813;DHT22;55808;48.112;11.552;2023-04-24T11:16:53;9.50;99.90
68813;DHT22;55808;48.112;11.552;2023-04-24T11:19:23;10.40;99.90
68813;DHT22;55808;48.112;11.552;2023-04-24T11:21:57;11.10;99.90
68813;DHT22;55808;48.112;11.552;2023-04-24T11:26:51;11.40;99.90
68813;DHT22;55808;48.112;11.552;2023-04-24T11:29:20;12.00;99.90
68813;DHT22;55808;48.112;11.552;2023-04-24T11:31:46;12.00;99.90
68813;DHT22;55808;48.112;11.552;2023-04-24T11:34:15;12.30;99.90
68813;DHT22;55808;48.112;11.552;2023-04-24T11:36:47;12.50;99.90
68813;DHT22;55808;48.112;11.552;2023-04-24T11:39:13;12.90;99.90
68813;DHT22;55808;48.112;11.552;2023-04-24T11:41:39;12.30;99.90
68813;DHT22;55808;48.112;11.552;2023-04-24T11:44:05;11.90;99.90
68813;DHT22;55808;48.112;11.552;2023-04-24T11:46:31;12.20;99.90
68813;DHT22;55808;48.112;11.552;2023-04-24T11:48:57;12.50;99.90
68813;DHT22;55808;48.112;11.552;2023-04-24T11:51:24;12.30;99.90
68813;DHT22;55808;48.112;11.552;2023-04-24T11:53:51;12.10;99.90
68813;DHT22;55808;48.112;11.552;2023-04-24T11:56:23;11.70;99.90
68813;DHT22;55808;48.112;11.552;2023-04-24T11:58:48;11.00;99.90
68813;DHT22;55808;48.112;11.552;2023-04-24T12:01:16;10.80;99.90
68813;DHT22;55808;48.112;11.552;2023-04-24T12:03:46;10.20;99.90
68813;DHT22;55808;48.112;11.552;2023-04-24T12:06:12;10.10;99.90
68813;DHT22;55808;48.112;11.552;2023-04-24T12:08:39;10.30;99.90
68813;DHT22;55808;48.112;11.552;2023-04-24T12:11:05;10.90;99.90
68813;DHT22;55808;48.112;11.552;2023-04-24T12:13:32;11.20;99.90
68813;DHT22;55808;48.112;11.552;2023-04-24T12:15:58;11.20;99.90
68813;DHT22;55808;48.112;11.552;2023-04-24T12:18:24;11.40;99.90
68813;DHT22;55808;48.112;11.552;2023-04-24T12:20:50;11.40;99.90
68813;DHT22;55808;48.112;11.552;2023-04-24T12:23:16;11.30;99.90
68813;DHT22;55808;48.112;11.552;2023-04-24T12:25:43;11.20;99.90
68813;DHT22;55808;48.112;11.552;2023-04-24T12:28:09;11.20;99.90
68813;DHT22;55808;48.112;11.552;2023-04-24T12:30:39;11.20;99.90
68813;DHT22;55808;48.112;11.552;2023-04-24T12:33:05;11.40;99.90
68813;DHT22;55808;48.112;11.552;2023-04-24T12:35:31;11.90;99.90
68813;DHT22;55808;48.112;11.552;2023-04-24T12:40:33;12.80;99.90
68813;DHT22;55808;48.112;11.552;2023-04-24T12:42:59;12.50;99.90
68813;DHT22;55808;48.112;11.552;2023-04-24T12:45:24;12.80;99.90
68813;DHT22;55808;48.112;11.552;2023-04-24T12:47:50;12.70;99.90
68813;DHT22;55808;48.112;11.552;2023-04-24T12:50:16;13.00;99.90
68813;DHT22;55808;48.112;11.552;2023-04-24T12:52:42;13.20;99.90
68813;DHT22;55808;48.112;11.552;2023-04-24T12:55:08;12.80;99.90
68813;DHT22;55808;48.112;11.552;2023-04-24T12:57:34;12.60;99.90
68813;DHT22;55808;48.112;11.552;2023-04-24T13:00:00;12.20;99.90
68813;DHT22;55808;48.112;11.552;2023-04-24T13:02:28;12.30;99.90
68813;DHT22;55808;48.112;11.552;2023-04-24T13:04:56;12.40;99.90
68813;DHT22;55808;48.112;11.552;2023-04-24T13:07:22;12.90;99.90
68813;DHT22;55808;48.112;11.552;2023-04-24T13:09:48;13.00;99.90
68813;DHT22;55808;48.112;11.552;2023-04-24T13:12:13;12.90;99.90
68813;DHT22;55808;48.112;11.552;2023-04-24T13:14:39;12.30;99.90
68813;DHT22;55808;48.112;11.552;2023-04-24T13:17:05;13.50;99.90
68813;DHT22;55808;48.112;11.552;2023-04-24T13:19:35;13.40;99.90
68813;DHT22;55808;48.112;11.552;2023-04-24T13:22:01;12.80;99.90
68813;DHT22;55808;48.112;11.552;2023-04-24T13:24:27;12.20;99.90
68813;DHT22;55808;48.112;11.552;2023-04-24T13:26:52;11.80;99.90
68813;DHT22;55808;48.112;11.552;2023-04-24T13:29:18;11.70;99.90
68813;DHT22;55808;48.112;11.552;2023-04-24T13:31:44;11.80;99.90
68813;DHT22;55808;48.112;11.552;2023-04-24T13:34:09;11.80;99.90
68813;DHT22;55808;48.112;11.552;2023-04-24T13:36:35;12.70;99.90
68813;DHT22;55808;48.112;11.552;2023-04-24T13:39:02;12.70;98.80
68813;DHT22;55808;48.112;11.552;2023-04-24T13:41:28;12.40;99.00
68813;DHT22;55808;48.112;11.552;2023-04-24T13:43:54;12.10;98.80
68813;DHT22;55808;48.112;11.552;2023-04-24T13:46:19;12.20;98.90
68813;DHT22;55808;48.112;11.552;2023-04-24T13:48:45;12.20;97.50
68813;DHT22;55808;48.112;11.552;2023-04-24T13:51:10;12.20;96.60
68813;DHT22;55808;48.112;11.552;2023-04-24T13:53:36;12.80;97.20
68813;DHT22;55808;48.112;11.552;2023-04-24T13:56:03;13.00;96.30
68813;DHT22;55808;48.112;11.552;2023-04-24T13:58:29;12.90;97.40
68813;DHT22;55808;48.112;11.552;2023-04-24T14:00:55;12.90;99.00
68813;DHT22;55808;48.112;11.552;2023-04-24T14:03:20;12.20;99.50
68813;DHT22;55808;48.112;11.552;2023-04-24T14:05:46;12.20;99.70
68813;DHT22;55808;48.112;11.552;2023-04-24T14:08:11;12.10;98.90
68813;DHT22;55808;48.112;11.552;2023-04-24T14:10:37;12.50;97.70
68813;DHT22;55808;48.112;11.552;2023-04-24T14:13:02;13.70;95.40
68813;DHT22;55808;48.112;11.552;2023-04-24T14:15:28;13.30;94.70
68813;DHT22;55808;48.112;11.552;2023-04-24T14:17:53;13.40;95.50
68813;DHT22;55808;48.112;11.552;2023-04-24T14:20:19;12.90;92.40
68813;DHT22;55808;48.112;11.552;2023-04-24T14:22:45;12.60;92.70
68813;DHT22;55808;48.112;11.552;2023-04-24T14:25:10;12.50;92.90
68813;DHT22;55808;48.112;11.552;2023-04-24T14:27:36;12.70;91.90
68813;DHT22;55808;48.112;11.552;2023-04-24T14:30:02;13.90;89.60
68813;DHT22;55808;48.112;11.552;2023-04-24T14:32:28;13.80;88.60
68813;DHT22;55808;48.112;11.552;2023-04-24T14:34:53;13.60;88.60
68813;DHT22;55808;48.112;11.552;2023-04-24T14:37:19;13.40;89.40
68813;DHT22;55808;48.112;11.552;2023-04-24T14:39:44;13.20;89.70
68813;DHT22;55808;48.112;11.552;2023-04-24T14:42:10;13.90;90.00
68813;DHT22;55808;48.112;11.552;2023-04-24T14:44:35;13.90;86.20
68813;DHT22;55808;48.112;11.552;2023-04-24T14:47:01;13.30;88.70
68813;DHT22;55808;48.112;11.552;2023-04-24T14:49:26;13.30;89.40
68813;DHT22;55808;48.112;11.552;2023-04-24T14:51:52;12.90;88.70
68813;DHT22;55808;48.112;11.552;2023-04-24T14:54:17;12.80;88.60
68813;DHT22;55808;48.112;11.552;2023-04-24T14:56:43;12.80;89.10
68813;DHT22;55808;48.112;11.552;2023-04-24T14:59:09;12.60;88.30
68813;DHT22;55808;48.112;11.552;2023-04-24T15:01:35;13.10;86.60
68813;DHT22;55808;48.112;11.552;2023-04-24T15:04:00;13.20;84.70
68813;DHT22;55808;48.112;11.552;2023-04-24T15:06:26;13.10;83.40
68813;DHT22;55808;48.112;11.552;2023-04-24T15:08:51;13.10;82.70
68813;DHT22;55808;48.112;11.552;2023-04-24T15:11:17;12.80;84.00
68813;DHT22;55808;48.112;11.552;2023-04-24T15:13:43;12.50;84.40
68813;DHT22;55808;48.112;11.552;2023-04-24T15:16:10;12.50;84.60
68813;DHT22;55808;48.112;11.552;2023-04-24T15:18:36;12.50;83.80
68813;DHT22;55808;48.112;11.552;2023-04-24T15:21:02;12.50;84.00
68813;DHT22;55808;48.112;11.552;2023-04-24T15:23:27;12.90;83.50
68813;DHT22;55808;48.112;11.552;2023-04-24T15:25:53;12.70;84.00
68813;DHT22;55808;48.112;11.552;2023-04-24T15:28:19;12.70;81.90